CW4778 Auckland NZ current weather conditions

sailwx.info

Wind from 098 at 3 knots gusting 11

Air temperature 14.4° C
Dewpoint 13.3° C

Last reported at 2016-Sep-27 11:48 UTC.
Time now 2016-Sep-27 12:13 UTC

Location: S 36°52' E 174°44'.
View on Google Maps.

See reports from other nearby stations

  
Tides and Currents Weather Stations Pressure Air Temp Water Temp Dewpoint Dewpoint Depression Visibility Wind Speed Wind Dir Waves Ship Positions
date/time (UTC)wind fromknots sea level pressurealtimeterstation pressurevisibilityair tempwater tempwave heightnotes
2016-Sep-27 11:48 098 3 gusting 11 14.4
2016-Sep-27 11:38 110 7 gusting 11 14.4
2016-Sep-27 11:28 085 6 gusting 10 14.4
2016-Sep-27 11:18 065 5 gusting 11 14.4
2016-Sep-27 11:08 066 6 gusting 11 14.4
2016-Sep-27 10:58 089 5 gusting 11 14.4
2016-Sep-27 10:48 106 8 gusting 13 14.4
2016-Sep-27 10:38 083 4 gusting 8 15.0
2016-Sep-27 10:28 073 4 gusting 8 15.0
2016-Sep-27 10:18 051 6 gusting 11 15.0
2016-Sep-27 10:08 071 1 gusting 7 15.0
2016-Sep-27 09:58 050 5 gusting 10 15.0
2016-Sep-27 09:48 047 6 gusting 10 15.0
2016-Sep-27 09:38 050 2 gusting 7 15.0
2016-Sep-27 09:28 077 5 gusting 8 15.0
2016-Sep-27 09:18 079 8 gusting 15 15.0
2016-Sep-27 09:08 070 5 gusting 10 15.0
2016-Sep-27 08:58 073 6 gusting 10 15.0
2016-Sep-27 08:28 087 2 gusting 10 15.0
2016-Sep-27 08:18 067 5 gusting 8 15.6
2016-Sep-27 07:58 071 4 gusting 8 15.6
2016-Sep-27 07:38 068 6 gusting 11 15.6
2016-Sep-27 07:28 099 2 gusting 6 15.0
2016-Sep-27 07:08 090 3 gusting 7 15.0
2016-Sep-27 06:58 063 4 gusting 6 15.0
2016-Sep-27 06:48 084 3 gusting 6 15.6
2016-Sep-27 06:28 087 4 gusting 8 15.6
2016-Sep-27 06:18 067 1 gusting 6 15.6
2016-Sep-27 06:08 070 2 gusting 6 15.6
2016-Sep-27 05:58 064 1 gusting 7 16.1
2016-Sep-27 05:48 103 5 gusting 7 16.1
2016-Sep-27 05:38 084 2 gusting 5 16.7
2016-Sep-27 04:58 022 4 gusting 6 17.2
2016-Sep-27 04:48 028 2 gusting 6 17.2
2016-Sep-27 04:38 063 4 gusting 6 17.2
2016-Sep-27 04:28 046 1 gusting 6 17.8
2016-Sep-27 04:18 066 2 gusting 6 17.8
2016-Sep-27 04:08 107 2 gusting 7 17.8
2016-Sep-27 03:58 056 3 gusting 6 17.8
2016-Sep-27 03:48 014 2 gusting 6 17.8
2016-Sep-27 03:38 075 1 gusting 6 17.8
2016-Sep-27 03:28 056 4 gusting 8 17.8
2016-Sep-27 03:18 069 4 gusting 8 18.3
2016-Sep-27 03:08 031 5 gusting 10 18.3
2016-Sep-27 02:38 039 5 gusting 7 18.3
2016-Sep-27 02:28 021 6 gusting 10 18.9
2016-Sep-27 02:18 011 7 gusting 12 18.9
2016-Sep-27 02:08 063 5 gusting 8 19.4
2016-Sep-27 01:38 043 7 gusting 11 18.3
2016-Sep-27 01:28 064 4 gusting 11 18.9
2016-Sep-27 01:18 037 6 gusting 10 18.9
2016-Sep-27 01:08 009 5 gusting 10 18.9
2016-Sep-27 00:58 045 6 gusting 11 18.3
2016-Sep-27 00:48 023 6 gusting 10 18.3
2016-Sep-27 00:38 034 6 gusting 11 18.9
2016-Sep-27 00:28 033 5 gusting 11 18.3
2016-Sep-26 23:58 037 4 gusting 11 18.9
2016-Sep-26 23:48 062 6 gusting 13 17.8
2016-Sep-26 23:38 031 5 gusting 11 18.9
2016-Sep-26 23:28 050 6 gusting 10 17.8
2016-Sep-26 23:18 033 5 gusting 8 17.8
2016-Sep-26 23:08 075 5 gusting 10 17.2
2016-Sep-26 22:58 063 5 gusting 11 17.2
2016-Sep-26 22:38 015 7 gusting 10 16.1
2016-Sep-26 22:28 018 9 gusting 12 15.6
2016-Sep-26 22:18 014 6 gusting 10 15.6
2016-Sep-26 22:08 020 7 gusting 12 16.1
2016-Sep-26 21:38 028 11 gusting 13 17.2
2016-Sep-26 21:28 025 11 gusting 17 16.7
2016-Sep-26 21:18 032 6 gusting 18 16.1
2016-Sep-26 21:08 063 11 gusting 18 16.7
2016-Sep-26 20:58 063 11 gusting 17 17.2
2016-Sep-26 20:48 091 12 gusting 17 17.2
2016-Sep-26 20:38 083 11 gusting 18 17.2
2016-Sep-26 20:28 068 9 gusting 17 17.2
2016-Sep-26 20:18 092 8 gusting 19 16.7
2016-Sep-26 20:08 094 6 gusting 13 16.7
2016-Sep-26 19:58 100 9 gusting 15 16.1
2016-Sep-26 19:48 110 6 gusting 14 16.1
2016-Sep-26 19:38 063 6 gusting 13 15.6
2016-Sep-26 19:28 081 6 gusting 11 15.6
2016-Sep-26 19:08 038 7 gusting 13 15.0
2016-Sep-26 18:58 067 6 gusting 13 14.4
2016-Sep-26 18:28 088 9 gusting 15 13.9
2016-Sep-26 18:18 118 7 gusting 12 13.3
2016-Sep-26 18:08 111 5 gusting 10 13.3
2016-Sep-26 17:48 104 5 gusting 8 13.3
2016-Sep-26 17:28 110 5 gusting 8 13.3
2016-Sep-26 16:58 148 4 gusting 6 12.8
2016-Sep-26 16:48 193 4 gusting 6 12.8
2016-Sep-26 15:58 185 5 gusting 10 12.8
2016-Sep-26 15:48 186 6 gusting 10 12.8
2016-Sep-26 15:38 167 6 gusting 11 12.8
2016-Sep-26 15:28 170 6 gusting 10 12.8
2016-Sep-26 15:08 160 6 gusting 11 12.8
2016-Sep-26 14:48 163 7 gusting 13 12.8
2016-Sep-26 14:38 161 7 gusting 12 13.3
2016-Sep-26 14:28 178 6 gusting 13 13.3
2016-Sep-26 13:48 169 5 gusting 13 13.3
2016-Sep-26 13:38 180 5 gusting 15 13.3
2016-Sep-26 13:28 185 6 gusting 8 13.3
2016-Sep-26 13:18 166 6 gusting 8 13.3
2016-Sep-26 12:58 181 6 gusting 8 13.3
2016-Sep-26 12:48 166 6 gusting 11 13.3
2016-Sep-26 12:28 164 5 gusting 11 13.3
2016-Sep-26 12:18 177 6 gusting 11 13.3
2016-Sep-26 12:08 190 6 gusting 12 13.3
2016-Sep-26 11:58 173 6 gusting 10 13.3
2016-Sep-26 11:48 183 4 gusting 7 13.3
2016-Sep-26 11:28 184 7 gusting 11 13.3
2016-Sep-26 11:18 187 6 gusting 10 13.3
2016-Sep-26 11:08 170 6 gusting 8 13.3
2016-Sep-26 10:58 185 4 gusting 8 13.9
2016-Sep-26 10:48 193 5 gusting 7 13.9
2016-Sep-26 10:38 197 5 gusting 6 13.9
2016-Sep-26 10:28 189 4 gusting 7 13.9
2016-Sep-26 10:18 213 3 gusting 6 13.9
2016-Sep-26 09:48 173 5 gusting 6 13.9
2016-Sep-26 09:18 031 5 gusting 10 13.9
2016-Sep-26 09:08 163 6 gusting 14 13.9
2016-Sep-26 08:48 150 4 gusting 8 13.9
2016-Sep-26 08:38 158 3 gusting 10 13.9
2016-Sep-26 08:28 177 1 gusting 8 13.9
2016-Sep-26 08:18 105 5 gusting 11 14.4
2016-Sep-26 08:08 153 4 gusting 11 14.4
2016-Sep-26 07:48 136 3 gusting 6 14.4
2016-Sep-26 07:38 155 0 gusting 5 14.4
2016-Sep-26 07:28 150 1 gusting 4 14.4
2016-Sep-26 07:18 141 3 gusting 8 15.0
2016-Sep-26 07:08 140 3 gusting 7 15.0
2016-Sep-26 06:58 134 4 gusting 10 15.0
2016-Sep-26 06:48 160 6 gusting 13 15.0
2016-Sep-26 06:38 128 2 gusting 11 15.6
2016-Sep-26 06:28 132 4 gusting 8 15.6
2016-Sep-26 06:08 148 4 gusting 10 15.6
2016-Sep-26 05:58 159 2 gusting 8 15.6
2016-Sep-26 05:48 150 2 gusting 8 15.6
2016-Sep-26 05:38 153 6 gusting 11 16.1
2016-Sep-26 05:28 132 4 gusting 12 16.1
2016-Sep-26 05:18 150 7 gusting 12 16.1
2016-Sep-26 05:08 103 4 gusting 8 16.7
2016-Sep-26 04:58 057 4 gusting 8 17.2
2016-Sep-26 04:48 067 4 gusting 8 17.2
2016-Sep-26 04:38 081 6 gusting 8 17.2
2016-Sep-26 04:28 090 3 gusting 6 17.2
2016-Sep-26 04:18 037 4 gusting 7 17.2
2016-Sep-26 04:08 103 4 gusting 8 17.8
2016-Sep-26 03:58 053 4 gusting 11 17.8
2016-Sep-26 03:28 028 6 gusting 13 18.3
2016-Sep-26 03:18 079 5 gusting 11 18.3
2016-Sep-26 02:58 067 6 gusting 12 17.8
2016-Sep-26 02:28 093 6 gusting 13 18.3
2016-Sep-26 02:18 037 7 gusting 13 17.8
2016-Sep-26 02:08 076 7 gusting 13 18.3
2016-Sep-26 01:58 056 10 gusting 13 17.8
2016-Sep-26 01:48 036 7 gusting 17 17.8
2016-Sep-26 01:38 070 7 gusting 14 17.8
2016-Sep-26 01:28 092 9 gusting 18 17.8
2016-Sep-26 01:08 120 10 gusting 19 18.9
2016-Sep-26 00:58 118 10 gusting 18 18.9
2016-Sep-26 00:38 070 6 gusting 14 17.8
2016-Sep-26 00:28 099 12 gusting 19 17.8
2016-Sep-26 00:18 113 7 gusting 15 17.2
2016-Sep-25 23:58 030 7 gusting 17 17.8
2016-Sep-25 23:38 070 6 gusting 13 18.3
2016-Sep-25 23:28 059 7 gusting 17 18.3
2016-Sep-25 23:18 037 8 gusting 13 17.2
2016-Sep-25 22:58 059 6 gusting 12 16.7
2016-Sep-25 22:48 077 10 gusting 13 16.1
2016-Sep-25 22:38 069 10 gusting 20 16.1
2016-Sep-25 22:28 065 6 gusting 11 16.1
2016-Sep-25 22:18 077 5 gusting 11 15.0
2016-Sep-25 22:08 075 6 gusting 13 15.6
2016-Sep-25 21:58 091 11 gusting 17 15.0
2016-Sep-25 21:48 098 7 gusting 13 15.0
2016-Sep-25 21:38 086 9 gusting 13 14.4
2016-Sep-25 21:28 071 10 gusting 17 14.4
2016-Sep-25 21:18 087 6 gusting 13 15.0
2016-Sep-25 20:58 089 6 gusting 13 14.4
2016-Sep-25 20:28 098 7 gusting 15 14.4
2016-Sep-25 20:18 099 9 gusting 11 13.9
2016-Sep-25 19:58 123 7 gusting 13 13.3
2016-Sep-25 19:38 104 7 gusting 13 13.3
2016-Sep-25 19:28 117 8 gusting 19 13.3
2016-Sep-25 19:18 113 5 gusting 11 13.3
2016-Sep-25 18:38 133 12.8
2016-Sep-25 18:28 176 12.2
2016-Sep-25 17:58 187 12.2
2016-Sep-25 17:48 197 12.2
2016-Sep-25 17:28 197 12.2
2016-Sep-25 17:18 195 12.2
2016-Sep-25 17:08 190 12.2
2016-Sep-25 16:48 221 2 gusting 5 12.2
2016-Sep-25 16:38 211 12.2
2016-Sep-25 16:18 196 12.2
2016-Sep-25 16:08 187 12.2
2016-Sep-25 15:58 184 12.2
2016-Sep-25 15:38 202 2 gusting 6 12.2
2016-Sep-25 15:08 194 2 gusting 6 12.2
2016-Sep-25 14:58 197 4 gusting 6 12.2
2016-Sep-25 14:38 190 4 gusting 6 12.2
2016-Sep-25 14:28 199 5 gusting 6 12.2
2016-Sep-25 14:08 200 5 gusting 5 12.2
2016-Sep-25 13:58 207 3 gusting 6 12.2
2016-Sep-25 13:48 188 2 gusting 6 12.2
2016-Sep-25 13:38 182 3 gusting 6 12.2
2016-Sep-25 13:28 209 2 gusting 6 12.2
2016-Sep-25 13:08 217 12.2
2016-Sep-25 12:58 219 12.2
2016-Sep-25 12:38 213 12.2
2016-Sep-25 12:28 195 12.2
2016-Sep-25 12:18 201 1 gusting 4 12.2